createdAt,value
2022-10-19T00:25:49.972Z,7.40
2022-10-19T00:30:41.671Z,6.97
2022-10-19T00:35:33.421Z,6.67
2022-10-19T00:46:57.581Z,7.77
2022-10-19T00:51:55.517Z,7.73
2022-10-19T00:56:51.940Z,10.70
2022-10-19T01:01:45.652Z,14.87
2022-10-19T01:06:39.365Z,16.03
2022-10-19T01:11:47.335Z,14.03
2022-10-19T01:17:35.004Z,11.80
2022-10-19T01:23:12.267Z,12.17
2022-10-19T01:28:44.390Z,11.47
2022-10-19T01:34:17.069Z,18.60
2022-10-19T01:39:40.840Z,15.55
2022-10-19T01:45:02.264Z,15.27
2022-10-19T01:50:03.593Z,17.50
2022-10-19T01:54:59.442Z,13.50
2022-10-19T01:59:55.824Z,16.20
2022-10-19T02:04:50.916Z,16.47
2022-10-19T02:09:42.659Z,11.97
2022-10-19T02:19:53.743Z,12.50
2022-10-19T02:24:45.509Z,11.27
2022-10-19T02:29:38.796Z,14.00
2022-10-19T02:34:43.520Z,11.70
2022-10-19T02:45:11.548Z,8.77
2022-10-19T02:50:09.147Z,9.10
2022-10-19T03:00:17.336Z,12.87
2022-10-19T03:05:09.765Z,11.37
2022-10-19T03:10:01.761Z,10.00
2022-10-19T03:14:53.487Z,12.30
2022-10-19T03:19:45.421Z,13.30
2022-10-19T03:24:37.081Z,15.80
2022-10-19T03:34:34.519Z,13.50
2022-10-19T03:39:26.361Z,12.17
2022-10-19T03:44:18.018Z,12.00
2022-10-19T03:49:10.281Z,14.23
2022-10-19T03:54:07.146Z,10.07
2022-10-19T03:59:01.579Z,9.60
2022-10-19T23:01:08.191Z,13.55
2022-10-19T23:06:00.259Z,14.23
2022-10-19T23:11:12.364Z,15.10
2022-10-19T23:21:25.758Z,16.05
2022-10-19T23:52:43.699Z,12.40
